Charleston, SC (29406)

6:52 PM EDT on August 27, 2016 (GMT -0400)
Amber Glen @ Tanner Plantation | | Change Station
Active Advisory: Coastal Hazard Statement Active Notice: Local Storm Report

Elev 30 ft 32.94 °N, 80.00 °W | Updated 7 minutes ago

Partly Cloudy
Partly Cloudy
85.3 °F
Feels Like 90 °F
N
5.4
Wind Variable Wind from East
Gusts 6.9 mph

Today
High -- | Low -- °F
--% Chance of Precip.
Yesterday
High -- | Low -- °F
Precip. -- in
Pressure 30.04 in
Visibility 10.0 miles
Clouds Few 2800 ft
Heat Index 90 °F
Dew Point 71 °F
Humidity 62%
Rainfall 0.00 in
Snow Depth Not available.
6:51 AM 7:50 PM
Waning Crescent, 21% visible
METAR KCHS 272156Z 11008KT 10SM FEW028 31/20 A3004 RMK AO2 SLP170 T03110200
Pressure 30.04 in
Visibility 10.0 miles
Clouds Few 2800 ft
Heat Index 90 °F
Dew Point 71 °F
Humidity 62%
Rainfall 0.00 in
Snow Depth Not available.
6:51 AM 7:50 PM
Waning Crescent, 21% visible
METAR KCHS 272156Z 11008KT 10SM FEW028 31/20 A3004 RMK AO2 SLP170 T03110200

10-Day Weather Forecast

Almanac

Astronomy

Aug. 27, 2016 Rise Set
Actual Time
Civil Twilight
Nautical Twilight
Astronomical Twilight
Moon
Length of Visible Light
Length of Day
Tomorrow will be .
, % of the Moon is Illuminated

Today's Extremes

State Highs State Lows

Community

WunderPhotos

Upload Photos

1,935,458 photos uploaded!

WunderBlog® & News

Nearby

Air Quality

  Air Quality AQ Index Pollutant
Not available.

Snow Depth

Station Depth Elevation

Earthquake Activity

City Distance Mag. Time & Date
Minimum magnitude displayed is 2.5.

Coastal Water Temperatures

Place Temperature

Stations

Nearby Weather Stations

Station Location Temp. Windchill Dew Point Humidity Wind Precip. Elev Updated Type
                   

Watches & Warnings

Coastal Hazard Statement
Issued: 2:56 PM EDT Aug. 27, 2016 – National Weather Service

... High rip current risk in effect from Sunday morning through
Sunday evening...

The National Weather Service in Charleston has issued a high rip
current risk... which is in effect from Sunday morning through
Sunday evening.

* Rip currents... wind and wave conditions support the
development of very strong rip currents. These rip currents
will be life threatening to anyone who enters the surf.

Precautionary/preparedness actions...

No one should enter the surf due to life threatening rip
currents.